sensor_id;sensor_type;location;lat;lon;timestamp;P1;durP1;ratioP1;P2;durP2;ratioP2
81930;SDS011;71395;43.488;1.472;2023-07-31T00:02:01;3.00;;;1.58;;
81930;SDS011;71395;43.488;1.472;2023-07-31T00:04:26;3.25;;;1.50;;
81930;SDS011;71395;43.488;1.472;2023-07-31T00:06:52;3.17;;;1.63;;
81930;SDS011;71395;43.488;1.472;2023-07-31T00:09:17;2.33;;;1.30;;
81930;SDS011;71395;43.488;1.472;2023-07-31T00:11:42;2.70;;;1.40;;
81930;SDS011;71395;43.488;1.472;2023-07-31T00:14:08;2.55;;;1.60;;
81930;SDS011;71395;43.488;1.472;2023-07-31T00:16:33;3.45;;;1.42;;
81930;SDS011;71395;43.488;1.472;2023-07-31T00:18:59;2.78;;;1.48;;
81930;SDS011;71395;43.488;1.472;2023-07-31T00:21:24;2.78;;;1.30;;
81930;SDS011;71395;43.488;1.472;2023-07-31T00:23:49;2.90;;;1.55;;
81930;SDS011;71395;43.488;1.472;2023-07-31T00:26:15;3.30;;;1.70;;
81930;SDS011;71395;43.488;1.472;2023-07-31T00:28:40;2.60;;;1.60;;
81930;SDS011;71395;43.488;1.472;2023-07-31T00:31:06;2.80;;;1.40;;
81930;SDS011;71395;43.488;1.472;2023-07-31T00:33:31;3.17;;;1.48;;
81930;SDS011;71395;43.488;1.472;2023-07-31T00:35:57;3.70;;;1.52;;
81930;SDS011;71395;43.488;1.472;2023-07-31T00:38:22;2.65;;;1.50;;
81930;SDS011;71395;43.488;1.472;2023-07-31T00:40:47;3.40;;;1.77;;
81930;SDS011;71395;43.488;1.472;2023-07-31T00:43:13;3.30;;;1.50;;
81930;SDS011;71395;43.488;1.472;2023-07-31T00:45:38;2.60;;;1.45;;
81930;SDS011;71395;43.488;1.472;2023-07-31T00:48:04;2.75;;;1.50;;
81930;SDS011;71395;43.488;1.472;2023-07-31T00:50:31;3.40;;;1.73;;
81930;SDS011;71395;43.488;1.472;2023-07-31T00:52:56;2.75;;;1.67;;
81930;SDS011;71395;43.488;1.472;2023-07-31T00:55:22;3.33;;;1.75;;
81930;SDS011;71395;43.488;1.472;2023-07-31T00:57:47;3.17;;;1.70;;
81930;SDS011;71395;43.488;1.472;2023-07-31T01:00:13;3.80;;;1.65;;
81930;SDS011;71395;43.488;1.472;2023-07-31T01:02:38;2.92;;;1.58;;
81930;SDS011;71395;43.488;1.472;2023-07-31T01:05:04;3.30;;;1.80;;
81930;SDS011;71395;43.488;1.472;2023-07-31T01:10:19;3.05;;;1.25;;
81930;SDS011;71395;43.488;1.472;2023-07-31T01:12:48;3.88;;;1.60;;
81930;SDS011;71395;43.488;1.472;2023-07-31T01:15:16;3.30;;;1.90;;
81930;SDS011;71395;43.488;1.472;2023-07-31T01:17:43;5.13;;;1.88;;
81930;SDS011;71395;43.488;1.472;2023-07-31T01:20:15;2.55;;;1.63;;
81930;SDS011;71395;43.488;1.472;2023-07-31T01:23:17;2.72;;;1.30;;
81930;SDS011;71395;43.488;1.472;2023-07-31T01:31:19;3.03;;;1.45;;
81930;SDS011;71395;43.488;1.472;2023-07-31T01:33:55;3.70;;;1.60;;
81930;SDS011;71395;43.488;1.472;2023-07-31T01:36:24;3.50;;;1.80;;
81930;SDS011;71395;43.488;1.472;2023-07-31T01:38:50;2.88;;;1.42;;
81930;SDS011;71395;43.488;1.472;2023-07-31T01:41:16;3.03;;;1.58;;
81930;SDS011;71395;43.488;1.472;2023-07-31T01:43:43;3.58;;;1.70;;
81930;SDS011;71395;43.488;1.472;2023-07-31T01:46:08;3.60;;;2.00;;
81930;SDS011;71395;43.488;1.472;2023-07-31T01:48:33;3.13;;;1.48;;
81930;SDS011;71395;43.488;1.472;2023-07-31T01:51:01;2.83;;;1.73;;
81930;SDS011;71395;43.488;1.472;2023-07-31T01:53:27;3.33;;;1.77;;
81930;SDS011;71395;43.488;1.472;2023-07-31T01:55:53;2.75;;;1.52;;
81930;SDS011;71395;43.488;1.472;2023-07-31T01:58:18;2.42;;;1.55;;
81930;SDS011;71395;43.488;1.472;2023-07-31T02:00:44;2.90;;;1.73;;
81930;SDS011;71395;43.488;1.472;2023-07-31T02:03:09;2.78;;;1.70;;
81930;SDS011;71395;43.488;1.472;2023-07-31T02:05:34;3.40;;;1.92;;
81930;SDS011;71395;43.488;1.472;2023-07-31T02:08:00;3.42;;;1.60;;
81930;SDS011;71395;43.488;1.472;2023-07-31T02:10:25;2.65;;;1.60;;
81930;SDS011;71395;43.488;1.472;2023-07-31T02:12:50;3.47;;;1.80;;
81930;SDS011;71395;43.488;1.472;2023-07-31T02:15:16;2.63;;;1.60;;
81930;SDS011;71395;43.488;1.472;2023-07-31T02:17:41;3.28;;;1.42;;
81930;SDS011;71395;43.488;1.472;2023-07-31T02:20:07;2.95;;;1.80;;
81930;SDS011;71395;43.488;1.472;2023-07-31T02:22:32;2.53;;;1.50;;
81930;SDS011;71395;43.488;1.472;2023-07-31T02:24:58;2.97;;;1.75;;
81930;SDS011;71395;43.488;1.472;2023-07-31T02:27:23;3.38;;;1.60;;
81930;SDS011;71395;43.488;1.472;2023-07-31T02:29:52;3.20;;;1.77;;
81930;SDS011;71395;43.488;1.472;2023-07-31T02:32:17;3.20;;;1.80;;
81930;SDS011;71395;43.488;1.472;2023-07-31T02:34:43;2.97;;;1.70;;
81930;SDS011;71395;43.488;1.472;2023-07-31T02:37:08;3.88;;;1.80;;
81930;SDS011;71395;43.488;1.472;2023-07-31T02:39:33;2.53;;;1.48;;
81930;SDS011;71395;43.488;1.472;2023-07-31T02:41:59;4.57;;;1.70;;
81930;SDS011;71395;43.488;1.472;2023-07-31T02:44:25;3.45;;;1.70;;
81930;SDS011;71395;43.488;1.472;2023-07-31T02:46:51;4.07;;;1.80;;
81930;SDS011;71395;43.488;1.472;2023-07-31T02:49:16;3.53;;;1.60;;
81930;SDS011;71395;43.488;1.472;2023-07-31T02:51:41;2.42;;;1.50;;
81930;SDS011;71395;43.488;1.472;2023-07-31T02:54:07;2.95;;;1.73;;
81930;SDS011;71395;43.488;1.472;2023-07-31T02:56:32;3.35;;;1.88;;
81930;SDS011;71395;43.488;1.472;2023-07-31T02:58:58;3.22;;;1.80;;
81930;SDS011;71395;43.488;1.472;2023-07-31T03:01:23;3.13;;;1.80;;
81930;SDS011;71395;43.488;1.472;2023-07-31T03:03:48;2.58;;;1.55;;
81930;SDS011;71395;43.488;1.472;2023-07-31T03:06:14;3.28;;;1.73;;
81930;SDS011;71395;43.488;1.472;2023-07-31T03:08:39;3.30;;;1.75;;
81930;SDS011;71395;43.488;1.472;2023-07-31T03:11:04;3.50;;;1.92;;
81930;SDS011;71395;43.488;1.472;2023-07-31T03:13:30;2.92;;;1.92;;
81930;SDS011;71395;43.488;1.472;2023-07-31T03:15:55;3.63;;;1.80;;
81930;SDS011;71395;43.488;1.472;2023-07-31T03:18:21;2.97;;;1.90;;
81930;SDS011;71395;43.488;1.472;2023-07-31T03:20:46;3.30;;;1.90;;
81930;SDS011;71395;43.488;1.472;2023-07-31T03:23:11;3.42;;;1.95;;
81930;SDS011;71395;43.488;1.472;2023-07-31T03:25:37;3.65;;;2.20;;
81930;SDS011;71395;43.488;1.472;2023-07-31T03:28:02;3.47;;;1.92;;
81930;SDS011;71395;43.488;1.472;2023-07-31T03:30:28;3.40;;;1.90;;
81930;SDS011;71395;43.488;1.472;2023-07-31T03:32:53;4.05;;;2.20;;
81930;SDS011;71395;43.488;1.472;2023-07-31T03:35:18;3.33;;;2.25;;
81930;SDS011;71395;43.488;1.472;2023-07-31T03:37:44;3.72;;;2.10;;
81930;SDS011;71395;43.488;1.472;2023-07-31T03:40:09;3.97;;;2.58;;
81930;SDS011;71395;43.488;1.472;2023-07-31T03:42:35;3.58;;;2.10;;
81930;SDS011;71395;43.488;1.472;2023-07-31T03:45:01;2.88;;;2.00;;
81930;SDS011;71395;43.488;1.472;2023-07-31T03:47:26;2.92;;;2.10;;
81930;SDS011;71395;43.488;1.472;2023-07-31T03:49:52;3.67;;;2.17;;
81930;SDS011;71395;43.488;1.472;2023-07-31T03:52:17;4.05;;;2.20;;
81930;SDS011;71395;43.488;1.472;2023-07-31T03:54:43;4.13;;;2.35;;
81930;SDS011;71395;43.488;1.472;2023-07-31T03:57:09;3.55;;;2.03;;
81930;SDS011;71395;43.488;1.472;2023-07-31T03:59:35;3.85;;;2.20;;
81930;SDS011;71395;43.488;1.472;2023-07-31T04:02:00;3.83;;;2.10;;
81930;SDS011;71395;43.488;1.472;2023-07-31T04:04:26;3.55;;;2.22;;
81930;SDS011;71395;43.488;1.472;2023-07-31T04:06:51;4.47;;;2.45;;
81930;SDS011;71395;43.488;1.472;2023-07-31T04:09:17;3.47;;;2.38;;
81930;SDS011;71395;43.488;1.472;2023-07-31T04:11:42;5.32;;;2.45;;
81930;SDS011;71395;43.488;1.472;2023-07-31T04:14:08;4.30;;;2.22;;
81930;SDS011;71395;43.488;1.472;2023-07-31T04:16:34;3.50;;;2.13;;
81930;SDS011;71395;43.488;1.472;2023-07-31T04:19:00;3.63;;;2.25;;
81930;SDS011;71395;43.488;1.472;2023-07-31T04:21:27;3.95;;;2.08;;
81930;SDS011;71395;43.488;1.472;2023-07-31T04:23:53;4.70;;;2.33;;
81930;SDS011;71395;43.488;1.472;2023-07-31T04:26:21;3.55;;;2.20;;
81930;SDS011;71395;43.488;1.472;2023-07-31T04:28:46;4.60;;;2.25;;
81930;SDS011;71395;43.488;1.472;2023-07-31T04:31:12;3.53;;;2.22;;
81930;SDS011;71395;43.488;1.472;2023-07-31T04:33:37;3.95;;;2.10;;
81930;SDS011;71395;43.488;1.472;2023-07-31T04:36:03;3.42;;;2.10;;
81930;SDS011;71395;43.488;1.472;2023-07-31T04:38:29;4.05;;;2.38;;
81930;SDS011;71395;43.488;1.472;2023-07-31T04:40:55;4.20;;;2.22;;
81930;SDS011;71395;43.488;1.472;2023-07-31T04:43:20;3.83;;;2.30;;
81930;SDS011;71395;43.488;1.472;2023-07-31T04:45:46;3.78;;;2.10;;
81930;SDS011;71395;43.488;1.472;2023-07-31T04:48:15;3.47;;;2.13;;
81930;SDS011;71395;43.488;1.472;2023-07-31T04:50:40;3.60;;;2.13;;
81930;SDS011;71395;43.488;1.472;2023-07-31T04:53:06;5.75;;;2.30;;
81930;SDS011;71395;43.488;1.472;2023-07-31T04:55:31;3.95;;;2.20;;
81930;SDS011;71395;43.488;1.472;2023-07-31T04:57:58;4.85;;;2.47;;
81930;SDS011;71395;43.488;1.472;2023-07-31T05:00:24;3.97;;;2.50;;
81930;SDS011;71395;43.488;1.472;2023-07-31T05:02:49;3.53;;;2.05;;
81930;SDS011;71395;43.488;1.472;2023-07-31T05:05:15;4.78;;;2.20;;
81930;SDS011;71395;43.488;1.472;2023-07-31T05:07:40;3.80;;;2.20;;
81930;SDS011;71395;43.488;1.472;2023-07-31T05:10:05;3.80;;;2.17;;
81930;SDS011;71395;43.488;1.472;2023-07-31T05:12:31;3.38;;;2.22;;
81930;SDS011;71395;43.488;1.472;2023-07-31T05:14:57;5.03;;;2.00;;
81930;SDS011;71395;43.488;1.472;2023-07-31T05:17:22;4.43;;;2.22;;
81930;SDS011;71395;43.488;1.472;2023-07-31T05:19:48;4.68;;;2.40;;
81930;SDS011;71395;43.488;1.472;2023-07-31T05:22:13;5.72;;;2.10;;
81930;SDS011;71395;43.488;1.472;2023-07-31T05:24:38;3.70;;;2.08;;
81930;SDS011;71395;43.488;1.472;2023-07-31T05:27:04;4.00;;;2.20;;
81930;SDS011;71395;43.488;1.472;2023-07-31T05:29:29;4.07;;;2.15;;
81930;SDS011;71395;43.488;1.472;2023-07-31T05:31:55;4.05;;;2.25;;
81930;SDS011;71395;43.488;1.472;2023-07-31T05:34:20;5.72;;;2.60;;
81930;SDS011;71395;43.488;1.472;2023-07-31T05:36:46;4.05;;;2.25;;
81930;SDS011;71395;43.488;1.472;2023-07-31T05:39:11;4.37;;;2.60;;
81930;SDS011;71395;43.488;1.472;2023-07-31T05:41:37;3.83;;;2.03;;
81930;SDS011;71395;43.488;1.472;2023-07-31T05:44:02;3.08;;;1.92;;
81930;SDS011;71395;43.488;1.472;2023-07-31T05:46:28;3.38;;;2.00;;
81930;SDS011;71395;43.488;1.472;2023-07-31T05:48:53;4.00;;;2.40;;
81930;SDS011;71395;43.488;1.472;2023-07-31T05:51:19;4.63;;;2.60;;
81930;SDS011;71395;43.488;1.472;2023-07-31T05:53:44;3.58;;;2.20;;
81930;SDS011;71395;43.488;1.472;2023-07-31T05:56:10;3.83;;;2.00;;
81930;SDS011;71395;43.488;1.472;2023-07-31T05:58:35;4.20;;;1.90;;
81930;SDS011;71395;43.488;1.472;2023-07-31T06:01:00;3.75;;;2.08;;
81930;SDS011;71395;43.488;1.472;2023-07-31T06:03:26;4.05;;;2.00;;
81930;SDS011;71395;43.488;1.472;2023-07-31T06:05:51;4.00;;;1.90;;
81930;SDS011;71395;43.488;1.472;2023-07-31T06:08:17;3.10;;;2.03;;
81930;SDS011;71395;43.488;1.472;2023-07-31T06:10:42;4.00;;;2.00;;
81930;SDS011;71395;43.488;1.472;2023-07-31T06:13:08;3.42;;;1.85;;
81930;SDS011;71395;43.488;1.472;2023-07-31T06:15:33;3.75;;;2.22;;
81930;SDS011;71395;43.488;1.472;2023-07-31T06:17:58;3.58;;;2.17;;
81930;SDS011;71395;43.488;1.472;2023-07-31T06:20:26;4.28;;;2.28;;
81930;SDS011;71395;43.488;1.472;2023-07-31T06:22:52;3.53;;;2.20;;
81930;SDS011;71395;43.488;1.472;2023-07-31T06:25:17;3.90;;;2.07;;
81930;SDS011;71395;43.488;1.472;2023-07-31T06:27:43;3.40;;;2.00;;
81930;SDS011;71395;43.488;1.472;2023-07-31T06:30:08;3.30;;;2.10;;
81930;SDS011;71395;43.488;1.472;2023-07-31T06:32:34;3.70;;;1.98;;
81930;SDS011;71395;43.488;1.472;2023-07-31T06:34:59;3.22;;;1.85;;
81930;SDS011;71395;43.488;1.472;2023-07-31T06:37:25;3.20;;;2.00;;
81930;SDS011;71395;43.488;1.472;2023-07-31T06:39:50;3.08;;;1.90;;
81930;SDS011;71395;43.488;1.472;2023-07-31T06:42:15;3.65;;;2.00;;
81930;SDS011;71395;43.488;1.472;2023-07-31T06:44:41;3.83;;;2.10;;
81930;SDS011;71395;43.488;1.472;2023-07-31T06:47:07;3.78;;;1.85;;
81930;SDS011;71395;43.488;1.472;2023-07-31T06:49:33;3.83;;;1.83;;
81930;SDS011;71395;43.488;1.472;2023-07-31T06:51:59;2.92;;;1.60;;
81930;SDS011;71395;43.488;1.472;2023-07-31T06:54:24;4.70;;;2.00;;
81930;SDS011;71395;43.488;1.472;2023-07-31T06:56:49;3.75;;;1.80;;
81930;SDS011;71395;43.488;1.472;2023-07-31T06:59:15;4.80;;;1.98;;
81930;SDS011;71395;43.488;1.472;2023-07-31T07:01:40;4.00;;;2.20;;
81930;SDS011;71395;43.488;1.472;2023-07-31T07:04:05;3.75;;;1.85;;
81930;SDS011;71395;43.488;1.472;2023-07-31T07:06:31;3.40;;;1.98;;
81930;SDS011;71395;43.488;1.472;2023-07-31T07:08:56;4.65;;;2.30;;
81930;SDS011;71395;43.488;1.472;2023-07-31T07:11:21;4.75;;;1.90;;
81930;SDS011;71395;43.488;1.472;2023-07-31T07:13:47;3.72;;;1.85;;
81930;SDS011;71395;43.488;1.472;2023-07-31T07:16:12;3.30;;;1.77;;
81930;SDS011;71395;43.488;1.472;2023-07-31T07:18:38;3.28;;;1.73;;
81930;SDS011;71395;43.488;1.472;2023-07-31T07:21:04;3.20;;;1.90;;
81930;SDS011;71395;43.488;1.472;2023-07-31T07:23:29;3.47;;;1.73;;
81930;SDS011;71395;43.488;1.472;2023-07-31T07:25:55;4.90;;;1.80;;
81930;SDS011;71395;43.488;1.472;2023-07-31T07:28:20;3.28;;;1.75;;
81930;SDS011;71395;43.488;1.472;2023-07-31T07:30:50;3.97;;;1.95;;
81930;SDS011;71395;43.488;1.472;2023-07-31T07:33:17;3.42;;;1.95;;
81930;SDS011;71395;43.488;1.472;2023-07-31T07:35:42;4.15;;;1.85;;
81930;SDS011;71395;43.488;1.472;2023-07-31T07:38:08;3.90;;;1.90;;
81930;SDS011;71395;43.488;1.472;2023-07-31T07:40:37;3.90;;;1.80;;
81930;SDS011;71395;43.488;1.472;2023-07-31T07:43:03;3.50;;;1.63;;
81930;SDS011;71395;43.488;1.472;2023-07-31T07:45:29;4.05;;;1.88;;
81930;SDS011;71395;43.488;1.472;2023-07-31T07:47:54;3.80;;;1.80;;
81930;SDS011;71395;43.488;1.472;2023-07-31T07:50:20;3.95;;;1.70;;
81930;SDS011;71395;43.488;1.472;2023-07-31T07:52:45;5.30;;;1.88;;
81930;SDS011;71395;43.488;1.472;2023-07-31T07:55:11;4.20;;;2.10;;
81930;SDS011;71395;43.488;1.472;2023-07-31T07:57:36;4.03;;;2.20;;
81930;SDS011;71395;43.488;1.472;2023-07-31T08:00:01;4.40;;;2.00;;
81930;SDS011;71395;43.488;1.472;2023-07-31T08:02:27;5.68;;;2.10;;
81930;SDS011;71395;43.488;1.472;2023-07-31T08:04:53;4.72;;;2.08;;
81930;SDS011;71395;43.488;1.472;2023-07-31T08:07:18;4.90;;;1.92;;
81930;SDS011;71395;43.488;1.472;2023-07-31T08:09:43;4.00;;;1.90;;
81930;SDS011;71395;43.488;1.472;2023-07-31T08:12:09;7.22;;;2.33;;
81930;SDS011;71395;43.488;1.472;2023-07-31T08:14:34;4.03;;;1.90;;
81930;SDS011;71395;43.488;1.472;2023-07-31T08:17:00;5.28;;;2.13;;
81930;SDS011;71395;43.488;1.472;2023-07-31T08:19:27;6.05;;;2.00;;
81930;SDS011;71395;43.488;1.472;2023-07-31T08:21:52;5.22;;;2.00;;
81930;SDS011;71395;43.488;1.472;2023-07-31T08:24:17;5.07;;;2.35;;
81930;SDS011;71395;43.488;1.472;2023-07-31T08:26:43;6.07;;;2.15;;
81930;SDS011;71395;43.488;1.472;2023-07-31T08:29:08;6.00;;;2.03;;
81930;SDS011;71395;43.488;1.472;2023-07-31T08:31:34;5.82;;;2.17;;
81930;SDS011;71395;43.488;1.472;2023-07-31T08:33:59;3.97;;;2.13;;
81930;SDS011;71395;43.488;1.472;2023-07-31T08:36:25;6.53;;;2.28;;
81930;SDS011;71395;43.488;1.472;2023-07-31T08:38:51;5.38;;;2.05;;
81930;SDS011;71395;43.488;1.472;2023-07-31T08:41:16;6.05;;;2.13;;
81930;SDS011;71395;43.488;1.472;2023-07-31T08:43:48;5.00;;;2.45;;
81930;SDS011;71395;43.488;1.472;2023-07-31T08:46:14;6.03;;;2.08;;
81930;SDS011;71395;43.488;1.472;2023-07-31T08:48:41;6.60;;;2.10;;
81930;SDS011;71395;43.488;1.472;2023-07-31T08:51:08;6.38;;;2.40;;
81930;SDS011;71395;43.488;1.472;2023-07-31T08:53:34;5.65;;;2.10;;
81930;SDS011;71395;43.488;1.472;2023-07-31T08:55:59;5.40;;;2.25;;
81930;SDS011;71395;43.488;1.472;2023-07-31T08:58:25;5.93;;;2.28;;
81930;SDS011;71395;43.488;1.472;2023-07-31T09:00:55;4.13;;;2.17;;
81930;SDS011;71395;43.488;1.472;2023-07-31T09:03:22;4.53;;;2.30;;
81930;SDS011;71395;43.488;1.472;2023-07-31T09:05:50;5.90;;;2.30;;
81930;SDS011;71395;43.488;1.472;2023-07-31T09:08:20;5.45;;;2.35;;
81930;SDS011;71395;43.488;1.472;2023-07-31T09:10:46;7.15;;;2.50;;
81930;SDS011;71395;43.488;1.472;2023-07-31T09:13:16;5.63;;;2.45;;
81930;SDS011;71395;43.488;1.472;2023-07-31T09:15:45;4.88;;;1.88;;
81930;SDS011;71395;43.488;1.472;2023-07-31T09:18:11;6.47;;;2.35;;
81930;SDS011;71395;43.488;1.472;2023-07-31T09:20:36;4.63;;;2.40;;
81930;SDS011;71395;43.488;1.472;2023-07-31T09:23:06;6.65;;;2.10;;
81930;SDS011;71395;43.488;1.472;2023-07-31T09:25:33;4.80;;;2.15;;
81930;SDS011;71395;43.488;1.472;2023-07-31T09:27:59;4.28;;;2.00;;
81930;SDS011;71395;43.488;1.472;2023-07-31T09:30:26;4.35;;;2.30;;
81930;SDS011;71395;43.488;1.472;2023-07-31T09:33:02;5.78;;;2.20;;
81930;SDS011;71395;43.488;1.472;2023-07-31T09:35:30;6.40;;;2.17;;
81930;SDS011;71395;43.488;1.472;2023-07-31T09:37:58;5.80;;;2.30;;
81930;SDS011;71395;43.488;1.472;2023-07-31T09:40:38;5.65;;;2.40;;
81930;SDS011;71395;43.488;1.472;2023-07-31T09:43:09;6.05;;;2.00;;
81930;SDS011;71395;43.488;1.472;2023-07-31T09:45:36;6.50;;;2.20;;
81930;SDS011;71395;43.488;1.472;2023-07-31T09:48:09;5.22;;;2.10;;
81930;SDS011;71395;43.488;1.472;2023-07-31T09:50:37;5.00;;;2.25;;
81930;SDS011;71395;43.488;1.472;2023-07-31T09:53:04;4.78;;;2.08;;
81930;SDS011;71395;43.488;1.472;2023-07-31T09:55:30;4.93;;;1.90;;
81930;SDS011;71395;43.488;1.472;2023-07-31T09:57:57;6.45;;;2.20;;
81930;SDS011;71395;43.488;1.472;2023-07-31T10:00:22;5.07;;;2.03;;
81930;SDS011;71395;43.488;1.472;2023-07-31T10:02:50;5.88;;;2.10;;
81930;SDS011;71395;43.488;1.472;2023-07-31T10:05:16;6.70;;;1.98;;
81930;SDS011;71395;43.488;1.472;2023-07-31T10:07:49;4.22;;;1.98;;
81930;SDS011;71395;43.488;1.472;2023-07-31T10:10:21;5.22;;;1.88;;
81930;SDS011;71395;43.488;1.472;2023-07-31T10:12:47;4.00;;;2.03;;
81930;SDS011;71395;43.488;1.472;2023-07-31T10:15:14;4.35;;;1.90;;
81930;SDS011;71395;43.488;1.472;2023-07-31T10:17:40;5.40;;;2.20;;
81930;SDS011;71395;43.488;1.472;2023-07-31T10:20:06;3.20;;;1.70;;
81930;SDS011;71395;43.488;1.472;2023-07-31T10:22:32;4.40;;;2.13;;
81930;SDS011;71395;43.488;1.472;2023-07-31T10:24:59;3.50;;;2.00;;
81930;SDS011;71395;43.488;1.472;2023-07-31T10:27:25;3.65;;;1.88;;
81930;SDS011;71395;43.488;1.472;2023-07-31T10:29:51;3.63;;;1.67;;
81930;SDS011;71395;43.488;1.472;2023-07-31T10:32:19;4.47;;;1.77;;
81930;SDS011;71395;43.488;1.472;2023-07-31T10:34:46;4.30;;;1.80;;
81930;SDS011;71395;43.488;1.472;2023-07-31T10:37:24;4.05;;;1.83;;
81930;SDS011;71395;43.488;1.472;2023-07-31T10:42:35;3.95;;;1.75;;
81930;SDS011;71395;43.488;1.472;2023-07-31T10:45:03;3.22;;;1.40;;
81930;SDS011;71395;43.488;1.472;2023-07-31T10:47:38;4.72;;;1.90;;
81930;SDS011;71395;43.488;1.472;2023-07-31T10:50:13;3.20;;;1.52;;
81930;SDS011;71395;43.488;1.472;2023-07-31T10:52:44;3.53;;;1.52;;
81930;SDS011;71395;43.488;1.472;2023-07-31T10:57:44;3.67;;;1.65;;
81930;SDS011;71395;43.488;1.472;2023-07-31T11:02:55;3.95;;;1.55;;
81930;SDS011;71395;43.488;1.472;2023-07-31T11:05:23;3.80;;;1.60;;
81930;SDS011;71395;43.488;1.472;2023-07-31T11:08:24;3.03;;;1.50;;
81930;SDS011;71395;43.488;1.472;2023-07-31T11:13:34;4.05;;;1.60;;
81930;SDS011;71395;43.488;1.472;2023-07-31T11:16:06;3.00;;;1.50;;
81930;SDS011;71395;43.488;1.472;2023-07-31T11:18:32;3.75;;;1.65;;
81930;SDS011;71395;43.488;1.472;2023-07-31T11:20:57;2.92;;;1.73;;
81930;SDS011;71395;43.488;1.472;2023-07-31T11:23:23;4.22;;;1.60;;
81930;SDS011;71395;43.488;1.472;2023-07-31T11:25:49;2.85;;;1.25;;
81930;SDS011;71395;43.488;1.472;2023-07-31T11:28:15;5.47;;;1.55;;
81930;SDS011;71395;43.488;1.472;2023-07-31T11:30:42;3.58;;;1.60;;
81930;SDS011;71395;43.488;1.472;2023-07-31T11:33:09;3.13;;;1.50;;
81930;SDS011;71395;43.488;1.472;2023-07-31T11:35:41;3.20;;;1.40;;
81930;SDS011;71395;43.488;1.472;2023-07-31T11:38:09;3.47;;;1.70;;
81930;SDS011;71395;43.488;1.472;2023-07-31T11:40:42;3.60;;;1.63;;
81930;SDS011;71395;43.488;1.472;2023-07-31T11:43:08;3.15;;;1.40;;
81930;SDS011;71395;43.488;1.472;2023-07-31T11:45:34;3.00;;;1.23;;
81930;SDS011;71395;43.488;1.472;2023-07-31T11:48:00;3.03;;;1.42;;
81930;SDS011;71395;43.488;1.472;2023-07-31T11:50:26;3.33;;;1.52;;
81930;SDS011;71395;43.488;1.472;2023-07-31T11:52:57;3.35;;;1.40;;
81930;SDS011;71395;43.488;1.472;2023-07-31T11:55:28;3.17;;;1.40;;
81930;SDS011;71395;43.488;1.472;2023-07-31T11:57:54;3.20;;;1.40;;
81930;SDS011;71395;43.488;1.472;2023-07-31T12:00:22;3.40;;;1.58;;
81930;SDS011;71395;43.488;1.472;2023-07-31T12:02:49;3.50;;;1.67;;
81930;SDS011;71395;43.488;1.472;2023-07-31T12:05:15;3.40;;;1.55;;
81930;SDS011;71395;43.488;1.472;2023-07-31T12:07:45;3.33;;;1.42;;
81930;SDS011;71395;43.488;1.472;2023-07-31T12:13:05;3.28;;;1.40;;
81930;SDS011;71395;43.488;1.472;2023-07-31T12:15:34;3.17;;;1.42;;
81930;SDS011;71395;43.488;1.472;2023-07-31T12:17:59;2.95;;;1.30;;
81930;SDS011;71395;43.488;1.472;2023-07-31T12:20:25;2.47;;;1.40;;
81930;SDS011;71395;43.488;1.472;2023-07-31T12:22:51;4.25;;;1.67;;
81930;SDS011;71395;43.488;1.472;2023-07-31T12:25:18;3.00;;;1.27;;
81930;SDS011;71395;43.488;1.472;2023-07-31T12:27:44;3.67;;;1.38;;
81930;SDS011;71395;43.488;1.472;2023-07-31T12:30:32;2.58;;;1.30;;
81930;SDS011;71395;43.488;1.472;2023-07-31T12:33:03;3.08;;;1.42;;
81930;SDS011;71395;43.488;1.472;2023-07-31T12:35:37;3.28;;;1.45;;
81930;SDS011;71395;43.488;1.472;2023-07-31T12:38:03;2.67;;;1.25;;
81930;SDS011;71395;43.488;1.472;2023-07-31T12:40:28;2.78;;;1.45;;
81930;SDS011;71395;43.488;1.472;2023-07-31T12:42:54;3.95;;;1.35;;
81930;SDS011;71395;43.488;1.472;2023-07-31T12:45:19;3.70;;;1.40;;
81930;SDS011;71395;43.488;1.472;2023-07-31T12:47:46;3.47;;;1.42;;
81930;SDS011;71395;43.488;1.472;2023-07-31T12:50:11;3.42;;;1.30;;
81930;SDS011;71395;43.488;1.472;2023-07-31T12:52:37;3.10;;;1.50;;
81930;SDS011;71395;43.488;1.472;2023-07-31T12:55:02;2.40;;;1.20;;
81930;SDS011;71395;43.488;1.472;2023-07-31T12:57:29;3.00;;;1.40;;
81930;SDS011;71395;43.488;1.472;2023-07-31T12:59:55;4.30;;;1.40;;
81930;SDS011;71395;43.488;1.472;2023-07-31T13:02:21;2.72;;;1.33;;
81930;SDS011;71395;43.488;1.472;2023-07-31T13:04:46;3.05;;;1.40;;
81930;SDS011;71395;43.488;1.472;2023-07-31T13:07:11;3.10;;;1.40;;
81930;SDS011;71395;43.488;1.472;2023-07-31T13:09:37;2.63;;;1.30;;
81930;SDS011;71395;43.488;1.472;2023-07-31T13:12:02;3.25;;;1.83;;
81930;SDS011;71395;43.488;1.472;2023-07-31T13:14:28;3.20;;;1.25;;
81930;SDS011;71395;43.488;1.472;2023-07-31T13:16:53;2.80;;;1.45;;
81930;SDS011;71395;43.488;1.472;2023-07-31T13:19:19;2.90;;;1.38;;
81930;SDS011;71395;43.488;1.472;2023-07-31T13:21:44;3.15;;;1.30;;
81930;SDS011;71395;43.488;1.472;2023-07-31T13:24:09;3.30;;;1.60;;
81930;SDS011;71395;43.488;1.472;2023-07-31T13:26:36;3.72;;;1.30;;
81930;SDS011;71395;43.488;1.472;2023-07-31T13:29:02;2.90;;;1.42;;
81930;SDS011;71395;43.488;1.472;2023-07-31T13:31:27;3.00;;;1.35;;
81930;SDS011;71395;43.488;1.472;2023-07-31T13:33:53;3.60;;;1.23;;
81930;SDS011;71395;43.488;1.472;2023-07-31T13:36:18;3.78;;;1.42;;
81930;SDS011;71395;43.488;1.472;2023-07-31T13:38:44;2.92;;;1.23;;
81930;SDS011;71395;43.488;1.472;2023-07-31T13:41:09;2.78;;;1.30;;
81930;SDS011;71395;43.488;1.472;2023-07-31T13:43:35;3.25;;;1.33;;
81930;SDS011;71395;43.488;1.472;2023-07-31T13:46:00;2.50;;;1.10;;
81930;SDS011;71395;43.488;1.472;2023-07-31T13:48:32;2.63;;;1.35;;
81930;SDS011;71395;43.488;1.472;2023-07-31T13:50:59;2.88;;;1.40;;
81930;SDS011;71395;43.488;1.472;2023-07-31T13:53:24;2.88;;;1.40;;
81930;SDS011;71395;43.488;1.472;2023-07-31T13:55:50;2.10;;;1.10;;
81930;SDS011;71395;43.488;1.472;2023-07-31T13:58:15;2.03;;;1.10;;
81930;SDS011;71395;43.488;1.472;2023-07-31T14:00:41;3.08;;;1.35;;
81930;SDS011;71395;43.488;1.472;2023-07-31T14:03:06;2.10;;;1.20;;
81930;SDS011;71395;43.488;1.472;2023-07-31T14:05:31;3.22;;;1.50;;
81930;SDS011;71395;43.488;1.472;2023-07-31T14:07:57;3.22;;;1.42;;
81930;SDS011;71395;43.488;1.472;2023-07-31T14:10:22;3.53;;;1.30;;
81930;SDS011;71395;43.488;1.472;2023-07-31T14:12:48;2.58;;;1.23;;
81930;SDS011;71395;43.488;1.472;2023-07-31T14:15:13;3.25;;;1.40;;
81930;SDS011;71395;43.488;1.472;2023-07-31T14:17:39;3.10;;;1.50;;
81930;SDS011;71395;43.488;1.472;2023-07-31T14:20:04;3.03;;;1.38;;
81930;SDS011;71395;43.488;1.472;2023-07-31T14:22:30;2.95;;;1.40;;
81930;SDS011;71395;43.488;1.472;2023-07-31T14:24:58;3.05;;;1.40;;
81930;SDS011;71395;43.488;1.472;2023-07-31T14:27:23;2.80;;;1.30;;
81930;SDS011;71395;43.488;1.472;2023-07-31T14:29:49;4.05;;;1.65;;
81930;SDS011;71395;43.488;1.472;2023-07-31T14:32:14;2.83;;;1.35;;
81930;SDS011;71395;43.488;1.472;2023-07-31T14:34:40;3.35;;;1.30;;
81930;SDS011;71395;43.488;1.472;2023-07-31T14:37:05;3.17;;;1.27;;
81930;SDS011;71395;43.488;1.472;2023-07-31T14:39:31;2.65;;;1.42;;
81930;SDS011;71395;43.488;1.472;2023-07-31T14:41:56;3.50;;;1.50;;
81930;SDS011;71395;43.488;1.472;2023-07-31T14:44:21;2.80;;;1.10;;
81930;SDS011;71395;43.488;1.472;2023-07-31T14:46:47;2.22;;;1.20;;
81930;SDS011;71395;43.488;1.472;2023-07-31T14:49:12;2.67;;;1.25;;
81930;SDS011;71395;43.488;1.472;2023-07-31T14:51:38;3.05;;;1.38;;
81930;SDS011;71395;43.488;1.472;2023-07-31T14:54:03;3.00;;;1.30;;
81930;SDS011;71395;43.488;1.472;2023-07-31T14:56:28;2.92;;;1.40;;
81930;SDS011;71395;43.488;1.472;2023-07-31T14:58:54;2.80;;;1.60;;
81930;SDS011;71395;43.488;1.472;2023-07-31T15:01:19;2.65;;;1.20;;
81930;SDS011;71395;43.488;1.472;2023-07-31T15:03:45;2.67;;;1.30;;
81930;SDS011;71395;43.488;1.472;2023-07-31T15:06:10;3.42;;;1.42;;